Photometre #394[NE_1.6] Lille AOT

File : 20220829_394.hum

29/08/2022,05:53:51,TEMP=14.0,BA=5.64,STAT.A=9.0,ExtBa=12.99
29/08/2022,05:57:53,TEMP=14.2,BA=5.64,STAT.A=9.0,ExtBa=13.00
29/08/2022,06:02:35,TEMP=14.4,BA=5.64,STAT.A=9.0,ExtBa=13.00
29/08/2022,06:08:09,TEMP=14.7,BA=5.64,STAT.A=9.0,ExtBa=13.00
29/08/2022,06:14:51,TEMP=14.9,BA=5.64,STAT.A=9.0,ExtBa=13.00
29/08/2022,06:23:04,TEMP=15.0,BA=5.64,STAT.A=9.0,ExtBa=13.00
29/08/2022,06:33:25,TEMP=15.2,BA=5.64,STAT.B=9.0,ExtBa=13.00
29/08/2022,06:43:02,TEMP=16.0,BA=5.60,STAT.A=9.0,ExtBa=12.70
29/08/2022,06:44:53,TEMP=16.1,BA=5.60,STAT.A=9.0,ExtBa=12.77
29/08/2022,06:50:01,TEMP=16.0,BA=5.60,STAT.A=9.0,ExtBa=12.81
29/08/2022,06:57:01,TEMP=16.1,BA=5.60,STAT.A=9.0,ExtBa=12.95
29/08/2022,07:05:03,TEMP=16.5,BA=5.64,STAT.C=9.0,ExtBa=13.02
29/08/2022,07:15:32,TEMP=17.3,BA=5.60,STAT.A=9.0,ExtBa=12.69
29/08/2022,07:25:15,TEMP=17.3,BA=5.64,STAT.A=9.0,ExtBa=12.95
29/08/2022,07:38:17,TEMP=18.7,BA=5.64,STAT.A=9.0,ExtBa=13.06
29/08/2022,07:54:12,TEMP=19.3,BA=5.64,STAT.A=9.5,ExtBa=13.12
29/08/2022,08:14:14,TEMP=20.6,BA=5.64,STAT.B=9.5,ExtBa=13.15
29/08/2022,08:23:26,TEMP=20.9,BA=5.60,STAT.D=9.0,ExtBa=12.70
29/08/2022,08:34:08,TEMP=21.4,BA=5.64,STAT.D=9.5,ExtBa=12.97
29/08/2022,08:49:09,TEMP=22.6,BA=5.64,STAT.F,ExtBa=13.07
29/08/2022,09:04:08,TEMP=23.1,BA=5.56,STAT.D=9.5,ExtBa=12.72
29/08/2022,09:19:08,TEMP=23.5,BA=5.64,STAT.D=9.5,ExtBa=13.02
29/08/2022,09:34:08,TEMP=23.5,BA=5.64,STAT.D=9.5,ExtBa=13.10
29/08/2022,09:49:10,TEMP=24.2,BA=5.64,STAT.F,ExtBa=13.11
29/08/2022,10:06:48,TEMP=24.9,BA=5.56,STAT.D=9.5,ExtBa=12.85
29/08/2022,10:19:08,TEMP=25.0,BA=5.64,STAT.D=9.5,ExtBa=13.02
29/08/2022,10:34:08,TEMP=25.3,BA=5.64,STAT.D=9.5,ExtBa=13.10
29/08/2022,10:49:10,TEMP=25.6,BA=5.64,STAT.F,ExtBa=13.11
29/08/2022,11:04:08,TEMP=25.6,BA=5.52,STAT.D=9.5,ExtBa=12.77
29/08/2022,11:19:08,TEMP=26.0,BA=5.64,STAT.D=9.5,ExtBa=13.03
29/08/2022,11:34:08,TEMP=26.4,BA=5.64,STAT.D=10.0,ExtBa=13.09
29/08/2022,11:49:10,TEMP=26.5,BA=5.60,STAT.F,ExtBa=13.11
29/08/2022,12:04:08,TEMP=26.5,BA=5.52,STAT.D=9.5,ExtBa=12.78
29/08/2022,12:19:08,TEMP=26.7,BA=5.60,STAT.D=10.0,ExtBa=13.02
29/08/2022,12:34:08,TEMP=26.6,BA=5.60,STAT.D=10.0,ExtBa=13.09
29/08/2022,12:49:10,TEMP=27.0,BA=5.60,STAT.F,ExtBa=13.10
29/08/2022,13:04:08,TEMP=27.1,BA=5.52,STAT.D=9.5,ExtBa=12.75
29/08/2022,13:19:08,TEMP=27.6,BA=5.60,STAT.D=10.0,ExtBa=13.01
29/08/2022,13:34:08,TEMP=27.5,BA=5.60,STAT.D=10.0,ExtBa=13.08
29/08/2022,13:49:10,TEMP=28.1,BA=5.60,STAT.F,ExtBa=13.10
29/08/2022,14:04:08,TEMP=27.7,BA=5.52,STAT.D=9.5,ExtBa=12.75
29/08/2022,14:19:08,TEMP=28.3,BA=5.60,STAT.D=10.0,ExtBa=13.01
29/08/2022,14:34:08,TEMP=28.2,BA=5.60,STAT.D=10.0,ExtBa=13.07
29/08/2022,14:49:10,TEMP=27.2,BA=5.60,STAT.F,ExtBa=13.09
29/08/2022,15:04:08,TEMP=26.5,BA=5.52,STAT.D=9.5,ExtBa=12.76
29/08/2022,15:19:08,TEMP=25.3,BA=5.60,STAT.D=9.5,ExtBa=13.00
29/08/2022,15:24:04,TEMP=25.2,BA=5.52,STAT.B=9.5,ExtBa=13.01
29/08/2022,15:44:06,TEMP=26.6,BA=5.60,STAT.A=9.5,ExtBa=12.97
29/08/2022,16:00:01,TEMP=26.9,BA=5.60,STAT.A=9.5,ExtBa=13.06
29/08/2022,16:13:03,TEMP=26.5,BA=5.60,STAT.A=9.5,ExtBa=13.08
29/08/2022,16:23:58,TEMP=26.6,BA=5.60,STAT.A=9.5,ExtBa=13.09
29/08/2022,16:33:15,TEMP=26.6,BA=5.60,STAT.C=9.5,ExtBa=13.09
29/08/2022,16:48:03,TEMP=26.2,BA=5.52,STAT.A=9.5,ExtBa=12.71
29/08/2022,16:49:56,TEMP=26.1,BA=5.52,STAT.A=9.5,ExtBa=12.75
29/08/2022,16:59:38,TEMP=25.3,BA=5.52,STAT.A=9.5,ExtBa=12.94
29/08/2022,17:01:30,TEMP=25.5,BA=5.52,STAT.A=9.5,ExtBa=12.89
29/08/2022,17:04:53,TEMP=25.2,BA=5.52,STAT.B=9.5,ExtBa=12.88
29/08/2022,17:15:12,TEMP=24.5,BA=5.48,STAT.A=9.5,ExtBa=12.77
29/08/2022,17:23:25,TEMP=24.0,BA=5.60,STAT.A=9.5,ExtBa=12.91
29/08/2022,17:30:07,TEMP=23.5,BA=5.56,STAT.A=9.5,ExtBa=12.96
29/08/2022,17:35:41,TEMP=23.3,BA=5.56,STAT.A=9.5,ExtBa=12.98
29/08/2022,17:40:23,TEMP=23.0,BA=5.60,STAT.A=9.5,ExtBa=12.98
29/08/2022,17:44:25,TEMP=22.9,BA=5.60,STAT.A=9.5,ExtBa=12.98